WATT/KOE METAR and TAF weather

Enter ICAO airport designator
Station Type Date Time Source
WATT METAR 2020/04/04 06:00 UTC NOAA

WATT 040600Z 23008KT 9999 SCT016 33/26 Q1009 NOSIG


Station Type Date Time Source
WATT Decoded METAR 2020/04/04 06:00 UTC NOAA

Station name not available
Apr 04, 2020 - 02:00 AM EDT / 2020.04.04 0600 UTC
Wind: from the SW (230 degrees) at 9 MPH (8 KT):0
Visibility: greater than 7 mile(s):0
Sky conditions: partly cloudy
Temperature: 91 F (33 C)
Heat index: 106.2 F (41.2 C):1
Dew Point: 78 F (26 C)
Relative Humidity: 66%
Pressure (altimeter): 29.80 in. Hg (1009 hPa)
ob: WATT 040600Z 23008KT 9999 SCT016 33/26 Q1009 NOSIG
cycle: 6

Station Type Date Time Source
WATT TAF 2020/04/04 06:00 UTC NOAA

TAF WATT 040500Z 0406/0506 33010KT 9999 SCT017
BECMG 0412/0414 10005KT

Example: see airport list